Time;durP1;ratioP1;P1;durP2;ratioP2;P2;SDS_P1;SDS_P2;PMS_P1;PMS_P2;Temp;Humidity;BMP_temperature;BMP_pressure;BME280_temperature;BME280_humidity;BME280_pressure;Samples;Min_cycle;Max_cycle;Signal;HPM_P1;HPM_P2
2021/09/02 00:05:41;;;;;;;17.33;10.27;;;;;;;13.37;84.76;101365.47;20823167;28;20037;-74
2021/09/02 00:15:43;;;;;;;17.92;10.07;;;;;;;13.28;84.47;101355.03;20822087;28;20100;-72
2021/09/02 00:25:44;;;;;;;18.33;10.48;;;;;;;13.12;85.57;101351.66;20821665;28;20099;-72
2021/09/02 00:35:46;;;;;;;16.90;10.63;;;;;;;13.00;85.65;101347.41;20820184;28;20048;-72
2021/09/02 00:45:48;;;;;;;15.43;10.95;;;;;;;12.90;86.31;101334.41;20823043;28;20600;-72
2021/09/02 00:55:50;;;;;;;16.92;10.90;;;;;;;12.79;86.70;101337.09;20820194;28;20049;-72
2021/09/02 01:05:54;;;;;;;18.48;11.18;;;;;;;12.50;87.74;101346.16;20818615;28;20415;-71
2021/09/02 01:15:56;;;;;;;18.43;11.43;;;;;;;12.44;87.56;101333.06;20818816;28;20056;-72
2021/09/02 01:25:58;;;;;;;20.63;11.20;;;;;;;12.36;87.71;101341.88;20821583;28;20046;-70
2021/09/02 01:36:00;;;;;;;18.17;11.70;;;;;;;12.23;88.24;101334.09;20833417;28;20045;-72
2021/09/02 01:46:02;;;;;;;21.13;11.63;;;;;;;12.07;88.93;101325.50;20833050;28;20491;-72
2021/09/02 01:56:04;;;;;;;22.08;12.32;;;;;;;11.99;89.23;101326.41;20832779;28;20124;-72
2021/09/02 02:06:06;;;;;;;21.25;12.00;;;;;;;11.95;89.34;101320.31;20832542;28;20072;-71
2021/09/02 02:16:08;;;;;;;20.58;12.40;;;;;;;12.04;88.51;101324.63;20832258;28;20092;-72
2021/09/02 02:26:10;;;;;;;20.70;12.48;;;;;;;11.91;89.07;101328.22;20830968;28;20473;-71
2021/09/02 02:36:12;;;;;;;22.60;13.40;;;;;;;11.78;89.43;101332.63;20829698;28;20392;-71
2021/09/02 02:46:14;;;;;;;22.73;13.13;;;;;;;11.74;89.51;101325.66;20829305;28;20478;-72
2021/09/02 02:56:16;;;;;;;24.88;13.70;;;;;;;11.78;89.21;101322.13;20829004;28;20479;-72
2021/09/02 03:06:18;;;;;;;23.17;12.57;;;;;;;11.74;89.09;101326.53;20827837;28;20049;-72
2021/09/02 03:16:19;;;;;;;19.52;12.00;;;;;;;11.66;89.25;101328.31;20827572;28;20046;-72
2021/09/02 03:26:21;;;;;;;23.38;12.75;;;;;;;11.61;89.79;101326.59;20826807;28;20103;-73
2021/09/02 03:36:23;;;;;;;22.33;12.73;;;;;;;11.67;88.96;101323.94;20826706;28;20776;-73
2021/09/02 03:46:30;;;;;;;22.50;13.50;;;;;;;11.59;89.42;101321.34;20825695;28;20396;-74
2021/09/02 03:56:32;;;;;;;25.10;12.18;;;;;;;11.50;89.59;101326.66;20824918;28;20091;-74
2021/09/02 04:06:34;;;;;;;25.92;13.60;;;;;;;11.42;90.05;101317.94;20828217;23;20390;-79
2021/09/02 04:16:36;;;;;;;24.70;12.82;;;;;;;11.32;89.64;101311.88;20895234;28;20052;-79
2021/09/02 04:26:37;;;;;;;20.90;13.00;;;;;;;11.30;89.86;101324.09;20914493;28;20049;-79
2021/09/02 04:36:39;;;;;;;25.80;13.32;;;;;;;11.23;90.18;101312.78;20911440;28;20075;-79
2021/09/02 04:46:41;;;;;;;19.95;13.55;;;;;;;11.16;90.47;101326.81;20917317;28;20049;-79
2021/09/02 05:07:46;;;;;;;27.42;14.38;;;;;;;11.21;89.80;101348.63;20495345;28;20517;-70
2021/09/02 05:17:48;;;;;;;22.20;13.40;;;;;;;11.08;90.85;101352.16;20480315;29;20576;-70
2021/09/02 05:27:50;;;;;;;27.58;14.90;;;;;;;11.17;90.15;101343.41;20495695;29;20047;-70
2021/09/02 05:37:52;;;;;;;24.13;13.27;;;;;;;11.26;89.86;101346.00;20476203;28;20043;-69
2021/09/02 05:47:54;;;;;;;30.08;13.60;;;;;;;11.51;89.30;101339.75;20493589;29;20509;-68
2021/09/02 05:57:56;;;;;;;22.58;13.20;;;;;;;11.81;88.98;101345.72;20493311;28;20048;-68
2021/09/02 06:07:58;;;;;;;24.30;14.05;;;;;;;12.03;88.42;101344.75;20492139;28;20658;-68
2021/09/02 06:18:00;;;;;;;23.17;12.68;;;;;;;12.32;86.88;101352.44;20499966;28;20050;-70
2021/09/02 06:28:01;;;;;;;21.80;12.45;;;;;;;12.57;86.49;101355.72;20506582;29;20468;-68
2021/09/02 06:38:05;;;;;;;22.83;12.52;;;;;;;12.80;85.86;101359.91;20505191;28;20047;-68
2021/09/02 06:48:06;;;;;;;22.42;12.23;;;;;;;13.04;85.38;101354.41;20486682;29;20468;-68
2021/09/02 06:58:08;;;;;;;23.02;11.63;;;;;;;13.42;84.03;101357.53;20503107;29;20055;-68
2021/09/02 07:08:10;;;;;;;20.38;11.32;;;;;;;13.77;83.49;101357.06;20500845;28;20129;-69
2021/09/02 07:18:11;;;;;;;18.85;10.15;;;;;;;14.02;82.06;101355.81;20506974;29;20056;-70
2021/09/02 07:28:17;;;;;;;14.60;9.18;;;;;;;14.40;79.21;101354.34;20507471;28;20127;-69
2021/09/02 07:38:19;;;;;;;16.58;9.45;;;;;;;14.63;78.97;101357.50;20502578;28;20039;-70
2021/09/02 07:48:21;;;;;;;14.38;9.75;;;;;;;14.76;79.40;101367.84;20497917;28;20110;-69
2021/09/02 07:58:22;;;;;;;14.55;9.02;;;;;;;15.06;78.09;101369.94;20501785;28;20052;-69
2021/09/02 08:08:24;;;;;;;16.42;9.02;;;;;;;15.35;77.18;101369.34;20485277;29;20098;-69
2021/09/02 08:18:26;;;;;;;14.27;8.82;;;;;;;15.63;76.09;101361.78;20504175;28;20106;-68
2021/09/02 08:28:28;;;;;;;13.18;7.85;;;;;;;16.03;73.58;101363.53;20547476;28;20051;-70
2021/09/02 08:38:29;;;;;;;12.90;6.80;;;;;;;16.39;73.30;101355.66;20498020;28;20489;-70
2021/09/02 08:48:33;;;;;;;13.77;6.72;;;;;;;16.85;70.75;101354.50;20498734;29;20394;-70
2021/09/02 08:58:35;;;;;;;11.68;6.15;;;;;;;17.13;70.49;101352.84;20481708;28;20138;-70
2021/09/02 09:08:40;;;;;;;10.85;6.85;;;;;;;17.60;67.82;101350.63;20496649;28;20051;-70
2021/09/02 09:18:45;;;;;;;9.90;6.45;;;;;;;17.99;66.98;101325.66;20497939;29;20051;-70
2021/09/02 09:28:47;;;;;;;11.30;6.22;;;;;;;18.48;65.97;101311.63;20480497;29;20087;-70
2021/09/02 09:38:57;;;;;;;10.65;6.50;;;;;;;18.83;64.14;101301.63;20496189;28;20485;-70
2021/09/02 09:48:59;;;;;;;10.48;5.85;;;;;;;19.32;61.08;101302.50;20500801;28;20047;-70
2021/09/02 09:59:02;;;;;;;11.02;5.90;;;;;;;19.38;60.94;101281.00;20511631;28;20055;-70
2021/09/02 10:09:05;;;;;;;10.93;6.20;;;;;;;19.71;60.18;101274.41;20493389;29;20043;-70
2021/09/02 10:19:07;;;;;;;12.05;5.70;;;;;;;20.07;59.32;101268.53;20510155;29;20047;-70
2021/09/02 10:29:35;;;;;;;10.23;5.50;;;;;;;20.39;56.47;101250.34;20492808;29;20051;-70
2021/09/02 10:39:43;;;;;;;10.15;5.65;;;;;;;20.89;57.62;101236.66;20507208;28;20106;-70
2021/09/02 10:49:59;;;;;;;10.45;5.40;;;;;;;21.04;54.94;101240.44;20490346;29;20890;-68
2021/09/02 11:00:01;;;;;;;11.00;5.57;;;;;;;21.34;53.31;101222.19;20466152;29;20063;-68
2021/09/02 11:10:27;;;;;;;8.35;5.63;;;;;;;21.45;52.44;101204.72;20426904;28;20062;-69
2021/09/02 11:20:32;;;;;;;8.80;6.07;;;;;;;21.46;52.19;101211.81;20584608;28;20058;-69
2021/09/02 11:30:34;;;;;;;9.00;5.25;;;;;;;21.71;53.00;101200.81;20583415;28;20047;-69
2021/09/02 11:40:37;;;;;;;7.72;5.15;;;;;;;21.81;50.50;101195.88;20582013;28;20055;-69
2021/09/02 11:50:39;;;;;;;10.18;5.63;;;;;;;21.88;50.29;101177.78;20581331;28;20054;-70
2021/09/02 12:00:41;;;;;;;9.80;5.47;;;;;;;22.21;50.66;101186.75;20582752;28;20452;-68
2021/09/02 12:10:46;;;;;;;8.10;5.22;;;;;;;22.33;49.01;101179.94;20575890;28;21060;-69
2021/09/02 12:20:48;;;;;;;8.40;5.13;;;;;;;22.03;49.89;101177.84;20498951;28;20051;-69
2021/09/02 12:30:50;;;;;;;7.78;4.40;;;;;;;22.12;48.59;101165.88;20499920;28;20122;-68
2021/09/02 12:41:22;;;;;;;7.40;5.07;;;;;;;22.31;48.34;101155.13;20499742;29;20395;-69
2021/09/02 12:51:24;;;;;;;9.95;4.90;;;;;;;22.40;47.28;101162.63;20497985;29;20055;-69
2021/09/02 13:01:26;;;;;;;8.05;5.28;;;;;;;22.52;49.20;101158.47;20496311;28;20051;-68
2021/09/02 13:11:29;;;;;;;8.57;5.70;;;;;;;22.90;46.49;101142.19;20509312;28;20471;-68
2021/09/02 13:21:31;;;;;;;7.38;4.95;;;;;;;23.08;46.58;101127.81;20578819;28;20047;-68
2021/09/02 13:31:33;;;;;;;8.45;5.43;;;;;;;23.04;46.30;101123.59;20594148;28;20050;-68
2021/09/02 13:41:36;;;;;;;7.85;4.75;;;;;;;22.86;45.43;101113.91;20591397;28;20420;-68
2021/09/02 13:51:38;;;;;;;8.57;5.05;;;;;;;22.95;46.49;101113.44;20592117;28;20089;-68
2021/09/02 14:01:40;;;;;;;9.45;4.90;;;;;;;23.06;45.60;101104.81;20591370;28;20046;-69
2021/09/02 14:11:42;;;;;;;10.30;5.05;;;;;;;23.14;45.39;101086.53;20578657;28;20058;-69
2021/09/02 14:21:44;;;;;;;7.25;4.50;;;;;;;22.81;45.41;101082.13;20513546;29;20051;-69
2021/09/02 14:31:47;;;;;;;8.98;5.15;;;;;;;23.05;45.06;101074.59;20511332;28;20059;-69
2021/09/02 14:41:49;;;;;;;8.53;5.03;;;;;;;23.30;45.08;101053.50;20507977;28;20084;-69
2021/09/02 14:51:51;;;;;;;9.73;5.18;;;;;;;23.28;44.06;101042.06;20505408;29;20101;-69
2021/09/02 15:01:52;;;;;;;9.73;4.32;;;;;;;23.03;46.23;101037.25;20507345;28;20051;-69
2021/09/02 15:11:55;;;;;;;9.90;4.85;;;;;;;23.07;45.25;101031.75;20521572;28;20047;-69
2021/09/02 15:21:57;;;;;;;12.45;5.15;;;;;;;23.13;45.90;101028.72;20584680;28;20413;-69
2021/09/02 15:31:59;;;;;;;7.85;4.68;;;;;;;23.35;45.60;101031.84;20584749;28;20105;-69
2021/09/02 15:42:00;;;;;;;8.68;4.75;;;;;;;23.16;45.58;101029.41;20584317;28;20129;-69
2021/09/02 15:52:03;;;;;;;10.77;4.72;;;;;;;23.19;45.14;101015.00;20581893;28;20050;-69
2021/09/02 16:02:04;;;;;;;7.40;4.28;;;;;;;23.26;43.80;101003.00;20581726;28;20050;-69
2021/09/02 16:12:06;;;;;;;8.18;4.20;;;;;;;23.38;43.59;100988.03;20564713;28;20055;-69
2021/09/02 16:22:08;;;;;;;7.00;4.40;;;;;;;23.25;44.61;100988.78;20501043;29;20098;-70
2021/09/02 16:32:11;;;;;;;7.45;4.80;;;;;;;23.15;44.83;100982.25;20500353;28;20047;-70
2021/09/02 16:42:13;;;;;;;7.45;4.40;;;;;;;23.30;44.91;100969.81;20498523;29;20055;-69
2021/09/02 16:52:16;;;;;;;7.50;5.03;;;;;;;23.11;45.88;100964.69;20499128;29;20421;-70
2021/09/02 17:02:18;;;;;;;7.60;5.33;;;;;;;22.83;47.82;100969.88;20497579;28;20113;-69
2021/09/02 17:12:20;;;;;;;7.63;4.78;;;;;;;22.60;48.60;100968.53;20516880;28;20053;-69
2021/09/02 17:22:23;;;;;;;9.15;4.90;;;;;;;22.27;50.27;100951.66;20578385;28;20599;-69
2021/09/02 17:32:24;;;;;;;10.93;5.28;;;;;;;22.01;51.79;100942.41;20579525;28;20058;-69
2021/09/02 17:42:27;;;;;;;7.65;5.40;;;;;;;21.62;53.03;100953.41;20576398;28;20137;-70
2021/09/02 17:52:28;;;;;;;6.68;4.13;;;;;;;21.26;54.35;100953.47;20576203;28;20047;-70
2021/09/02 18:02:30;;;;;;;8.35;4.80;;;;;;;20.97;55.01;100944.31;20575095;28;20105;-70
2021/09/02 18:12:32;;;;;;;8.35;4.80;;;;;;;20.61;57.02;100947.88;20565431;28;20078;-69
2021/09/02 18:22:34;;;;;;;7.88;5.13;;;;;;;20.17;59.17;100952.59;20506750;29;20079;-69
2021/09/02 18:32:36;;;;;;;9.52;5.15;;;;;;;19.95;59.75;100952.75;20508529;28;20047;-70
2021/09/02 18:42:38;;;;;;;8.05;4.90;;;;;;;19.84;59.77;100949.72;20501920;28;20233;-70
2021/09/02 18:52:39;;;;;;;8.48;4.95;;;;;;;19.59;60.54;100956.06;20505837;29;20055;-70
2021/09/02 19:02:41;;;;;;;8.05;5.10;;;;;;;19.28;62.00;100966.31;20548968;28;20116;-70
2021/09/02 19:12:50;;;;;;;9.13;5.30;;;;;;;19.17;62.15;100974.75;20644686;28;20086;-69
2021/09/02 19:22:53;;;;;;;8.02;5.38;;;;;;;18.99;63.23;100968.41;20585733;28;20055;-70
2021/09/02 19:32:58;;;;;;;8.65;5.28;;;;;;;18.82;64.02;100985.00;20561572;28;20054;-70
2021/09/02 19:43:00;;;;;;;7.97;5.03;;;;;;;18.57;65.17;100986.88;20503774;29;20055;-69
2021/09/02 19:53:01;;;;;;;10.30;6.00;;;;;;;18.26;66.63;100989.88;20502650;29;20059;-70
2021/09/02 20:03:26;;;;;;;10.55;6.10;;;;;;;17.97;69.01;100993.63;20501203;28;20055;-70
2021/09/02 20:13:31;;;;;;;10.40;5.75;;;;;;;17.47;70.90;100998.91;20502556;29;20051;-70
2021/09/02 20:23:33;;;;;;;10.60;6.22;;;;;;;17.19;72.15;100995.41;20483421;29;20054;-70
2021/09/02 20:33:35;;;;;;;12.02;7.22;;;;;;;17.03;72.82;100988.03;20502236;28;20075;-70
2021/09/02 20:43:41;;;;;;;10.18;6.65;;;;;;;16.75;74.09;100988.06;20499916;29;20047;-69
2021/09/02 20:53:45;;;;;;;11.10;6.90;;;;;;;16.59;74.81;100987.66;20497664;28;20358;-70
2021/09/02 21:03:49;;;;;;;11.38;7.10;;;;;;;16.32;76.24;100994.63;20527128;28;20047;-70
2021/09/02 21:13:52;;;;;;;;;;;;;;;16.12;77.17;100990.81;20608605;28;20042;-70
2021/09/02 21:23:58;;;;;;;11.57;6.95;;;;;;;15.97;77.44;100982.47;20633271;28;19928;-71
2021/09/02 21:34:13;;;;;;;10.80;7.28;;;;;;;15.85;77.94;100973.09;20636639;28;20047;-70
2021/09/02 21:44:17;;;;;;;10.98;7.32;;;;;;;15.74;78.55;100975.19;20659082;28;20419;-70
2021/09/02 21:54:24;;;;;;;16.58;7.50;;;;;;;15.53;79.26;100977.47;20671194;28;20431;-70
2021/09/02 22:04:30;;;;;;;12.30;8.10;;;;;;;15.47;79.54;100974.13;20663552;28;20055;-71
2021/09/02 22:14:39;;;;;;;13.25;8.43;;;;;;;15.40;80.09;100968.16;20626394;23;20050;-73
2021/09/02 22:24:48;;;;;;;13.27;8.07;;;;;;;15.24;80.53;100969.47;20670679;28;20046;-73
2021/09/02 22:34:51;;;;;;;12.50;8.68;;;;;;;14.94;82.10;100977.22;20669313;28;20191;-72
2021/09/02 22:44:53;;;;;;;14.23;8.80;;;;;;;14.78;82.73;100975.88;20666471;28;20502;-72
2021/09/02 22:54:56;;;;;;;13.75;9.30;;;;;;;14.69;82.82;100971.69;20665397;28;20043;-72
2021/09/02 23:04:58;;;;;;;14.38;9.07;;;;;;;14.47;83.68;100960.75;20667457;28;20065;-73
2021/09/02 23:15:09;;;;;;;13.32;9.23;;;;;;;14.39;83.92;100957.41;20684095;28;20512;-72
2021/09/02 23:25:17;;;;;;;13.95;9.77;;;;;;;14.18;84.22;100952.59;20668623;28;20424;-73
2021/09/02 23:35:19;;;;;;;13.93;9.25;;;;;;;14.01;84.97;100959.13;20664189;28;20687;-73
2021/09/02 23:45:21;;;;;;;15.07;9.02;;;;;;;13.96;85.51;100954.84;20663081;28;20047;-73
2021/09/02 23:55:23;;;;;;;15.90;9.55;;;;;;;14.04;85.05;100945.91;20661955;28;20055;-73
